createdAt,value
2019-01-16T00:04:29.357Z,65.10
2019-01-16T00:20:12.408Z,66.74
2019-01-16T00:26:23.808Z,66.50
2019-01-16T00:32:44.951Z,66.82
2019-01-16T00:35:51.375Z,66.80
2019-01-16T00:45:00.254Z,67.00
2019-01-16T00:53:32.430Z,67.61
2019-01-16T00:56:25.900Z,67.92
2019-01-16T01:11:17.668Z,68.39
2019-01-16T01:17:31.168Z,68.38
2019-01-16T01:20:29.898Z,68.79
2019-01-16T01:29:47.420Z,68.08
2019-01-16T01:35:53.843Z,68.51
2019-01-16T01:39:05.215Z,69.72
2019-01-16T01:42:01.817Z,70.21
2019-01-16T01:55:05.082Z,69.95
2019-01-16T01:58:11.947Z,70.04
2019-01-16T02:07:37.303Z,69.99
2019-01-16T02:10:44.019Z,69.72
2019-01-16T02:17:04.254Z,69.16
2019-01-16T02:20:00.808Z,69.03
2019-01-16T02:23:10.334Z,68.84
2019-01-16T02:32:05.494Z,68.59
2019-01-16T02:38:25.991Z,68.37
2019-01-16T02:41:52.101Z,68.16
2019-01-16T02:49:59.047Z,67.67
2019-01-16T02:53:04.938Z,67.54
2019-01-16T02:56:11.600Z,67.59
2019-01-16T02:59:16.523Z,67.23
2019-01-16T03:02:22.991Z,67.14
2019-01-16T03:05:26.007Z,67.03
2019-01-16T03:09:35.546Z,67.20
2019-01-16T03:15:05.857Z,66.77
2019-01-16T03:18:10.920Z,66.51
2019-01-16T03:20:50.289Z,66.73
2019-01-16T03:26:07.930Z,66.31
2019-01-16T03:31:26.484Z,66.76
2019-01-16T03:37:12.144Z,66.87
2019-01-16T03:43:17.351Z,67.00
2019-01-16T04:04:29.036Z,67.73
2019-01-16T04:13:48.688Z,67.43
2019-01-16T04:17:00.117Z,67.46
2019-01-16T04:23:04.431Z,66.67
2019-01-16T04:29:19.044Z,66.46
2019-01-16T04:39:17.945Z,65.45
2019-01-16T04:42:15.859Z,65.18
2019-01-16T04:48:18.318Z,64.98
2019-01-16T04:54:17.607Z,64.14
2019-01-16T04:56:56.942Z,63.61
2019-01-16T05:02:42.230Z,62.95
2019-01-16T05:08:59.913Z,62.62
2019-01-16T05:14:38.966Z,62.13
2019-01-16T05:27:11.385Z,62.25
2019-01-16T05:30:07.364Z,61.70
2019-01-16T05:36:26.530Z,61.53
2019-01-16T05:39:05.461Z,61.51
2019-01-16T05:42:16.688Z,61.38
2019-01-16T05:48:23.951Z,60.63
2019-01-16T05:56:39.942Z,60.51
2019-01-16T05:59:59.058Z,60.57
2019-01-16T06:11:06.062Z,59.40
2019-01-16T06:13:44.297Z,59.39
2019-01-16T06:30:18.061Z,58.90
2019-01-16T06:36:26.770Z,58.42
2019-01-16T06:39:34.700Z,58.37
2019-01-16T06:42:41.019Z,58.40
2019-01-16T06:45:28.481Z,58.30
2019-01-16T06:48:39.262Z,58.38
2019-01-16T06:51:45.225Z,57.81
2019-01-16T06:57:49.575Z,57.64
2019-01-16T07:01:00.891Z,57.99
2019-01-16T07:04:10.076Z,58.14
2019-01-16T07:07:17.334Z,58.04
2019-01-16T07:10:06.951Z,58.33
2019-01-16T07:18:37.029Z,57.63
2019-01-16T07:21:15.125Z,57.45
2019-01-16T07:24:22.266Z,57.61
2019-01-16T07:30:35.152Z,57.09
2019-01-16T07:34:12.673Z,57.67
2019-01-16T07:36:15.073Z,57.51
2019-01-16T07:38:56.574Z,57.48
2019-01-16T07:41:50.987Z,57.79
2019-01-16T07:44:29.250Z,57.52
2019-01-16T07:47:36.903Z,57.07
2019-01-16T07:50:42.247Z,57.07
2019-01-16T07:59:54.833Z,57.59
2019-01-16T08:15:27.135Z,56.66
2019-01-16T08:18:33.456Z,56.70
2019-01-16T08:21:40.888Z,56.61
2019-01-16T08:24:47.223Z,56.51
2019-01-16T08:30:39.869Z,56.92
2019-01-16T08:33:29.624Z,56.61
2019-01-16T08:36:36.647Z,57.22
2019-01-16T08:51:48.793Z,56.43
2019-01-16T08:58:02.100Z,56.45
2019-01-16T09:01:10.522Z,56.27
2019-01-16T09:03:48.414Z,55.51
2019-01-16T09:13:16.117Z,56.17
2019-01-16T09:22:32.727Z,55.82
2019-01-16T09:25:55.407Z,55.65
2019-01-16T09:34:56.469Z,55.85
2019-01-16T09:38:06.478Z,55.58
2019-01-16T10:02:55.980Z,55.41
2019-01-16T10:06:02.318Z,54.74
2019-01-16T10:09:08.632Z,54.59
2019-01-16T10:14:58.029Z,55.94
2019-01-16T10:20:55.543Z,55.08
2019-01-16T10:23:41.356Z,55.72
2019-01-16T10:26:26.589Z,56.03
2019-01-16T10:29:23.661Z,55.67
2019-01-16T10:35:05.841Z,56.13
2019-01-16T10:37:55.768Z,55.35
2019-01-16T10:40:44.748Z,56.11
2019-01-16T10:43:35.673Z,55.73
2019-01-16T10:46:25.781Z,55.80
2019-01-16T10:49:28.901Z,55.49
2019-01-16T10:52:26.110Z,55.33
2019-01-16T10:55:31.124Z,55.04
2019-01-16T10:58:34.458Z,54.41
2019-01-16T11:01:34.428Z,55.42
2019-01-16T11:04:21.692Z,55.42
2019-01-16T11:07:10.725Z,55.21
2019-01-16T11:10:03.623Z,55.48
2019-01-16T11:13:08.611Z,55.17
2019-01-16T11:16:11.541Z,54.95
2019-01-16T11:19:10.464Z,54.14
2019-01-16T11:22:09.174Z,54.58
2019-01-16T11:24:56.493Z,54.36
2019-01-16T11:27:47.094Z,54.22
2019-01-16T11:30:35.416Z,54.23
2019-01-16T11:33:31.474Z,53.75
2019-01-16T11:36:22.840Z,54.35
2019-01-16T11:39:15.289Z,54.31
2019-01-16T11:42:05.698Z,54.11
2019-01-16T11:44:56.849Z,54.52
2019-01-16T11:47:50.175Z,54.46
2019-01-16T11:50:36.794Z,54.17
2019-01-16T11:53:37.087Z,54.20
2019-01-16T11:56:27.984Z,54.10
2019-01-16T11:59:18.539Z,54.24
2019-01-16T12:02:23.554Z,54.60
2019-01-16T12:05:24.032Z,54.89
2019-01-16T12:08:16.064Z,54.68
2019-01-16T12:11:20.956Z,54.58
2019-01-16T12:14:19.590Z,54.59
2019-01-16T12:17:11.699Z,54.68
2019-01-16T12:20:01.171Z,54.08
2019-01-16T12:23:03.978Z,54.30
2019-01-16T12:35:04.291Z,54.09
2019-01-16T12:38:17.188Z,53.98
2019-01-16T12:42:07.560Z,54.06
2019-01-16T12:54:50.389Z,53.96
2019-01-16T13:01:11.553Z,53.60
2019-01-16T13:04:17.947Z,53.95
2019-01-16T13:07:43.757Z,53.92
2019-01-16T13:10:17.803Z,53.87
2019-01-16T13:13:28.022Z,53.87
2019-01-16T13:22:46.076Z,53.86
2019-01-16T13:25:35.752Z,53.61
2019-01-16T13:28:30.202Z,53.66
2019-01-16T13:38:25.985Z,53.47
2019-01-16T15:46:16.328Z,57.86
2019-01-16T15:55:50.000Z,57.83
2019-01-16T15:58:32.782Z,57.04
2019-01-16T16:05:05.044Z,58.15
2019-01-16T16:14:00.856Z,58.13
2019-01-16T16:17:07.553Z,57.85
2019-01-16T16:20:01.671Z,57.43
2019-01-16T16:23:10.477Z,57.65
2019-01-16T16:26:13.840Z,58.49
2019-01-16T16:29:13.100Z,58.35
2019-01-16T16:32:20.016Z,58.21
2019-01-16T16:45:05.730Z,58.11
2019-01-16T16:50:59.490Z,57.61
2019-01-16T16:53:46.629Z,57.32
2019-01-16T16:56:39.017Z,57.19
2019-01-16T17:01:32.271Z,56.74
2019-01-16T17:04:29.415Z,57.01
2019-01-16T17:07:21.668Z,57.32
2019-01-16T17:10:15.742Z,57.27
2019-01-16T17:13:17.292Z,57.16
2019-01-16T17:16:04.965Z,56.78
2019-01-16T17:19:18.320Z,56.83
2019-01-16T17:22:06.195Z,56.70
2019-01-16T17:24:57.146Z,56.38
2019-01-16T17:27:54.826Z,56.18
2019-01-16T17:36:47.510Z,56.47
2019-01-16T17:39:39.758Z,56.46
2019-01-16T17:42:29.316Z,57.02
2019-01-16T17:52:03.651Z,57.25
2019-01-16T17:54:48.096Z,57.54
2019-01-16T18:03:50.297Z,57.60
2019-01-16T18:10:09.750Z,57.64
2019-01-16T18:13:12.307Z,57.51
2019-01-16T18:16:28.750Z,57.25
2019-01-16T18:19:20.997Z,56.71
2019-01-16T18:22:10.613Z,57.20
2019-01-16T18:24:57.083Z,56.87
2019-01-16T18:27:55.156Z,56.87
2019-01-16T18:31:06.462Z,56.97
2019-01-16T18:34:08.646Z,57.00
2019-01-16T18:37:06.747Z,56.62
2019-01-16T18:39:58.819Z,57.18
2019-01-16T18:42:53.784Z,57.53
2019-01-16T18:45:47.932Z,57.27
2019-01-16T18:48:48.566Z,56.70
2019-01-16T18:51:38.741Z,56.63
2019-01-16T18:54:42.667Z,56.93
2019-01-16T18:57:47.227Z,56.59
2019-01-16T19:00:57.549Z,56.34
2019-01-16T19:03:51.239Z,56.27
2019-01-16T19:06:46.574Z,56.66
2019-01-16T19:09:40.644Z,56.66
2019-01-16T19:12:30.511Z,57.12
2019-01-16T19:15:24.465Z,57.43
2019-01-16T19:18:38.016Z,57.39
2019-01-16T19:21:42.618Z,57.18
2019-01-16T19:24:37.738Z,56.93
2019-01-16T19:27:47.620Z,56.98
2019-01-16T19:30:50.697Z,56.62
2019-01-16T19:33:40.545Z,56.00
2019-01-16T19:36:34.853Z,56.08
2019-01-16T19:42:36.804Z,56.62
2019-01-16T19:45:29.907Z,56.72
2019-01-16T19:48:18.854Z,56.57
2019-01-16T19:51:16.964Z,56.07
2019-01-16T19:54:29.176Z,55.94
2019-01-16T19:57:24.615Z,55.85
2019-01-16T20:00:33.503Z,55.64
2019-01-16T20:03:31.489Z,55.58
2019-01-16T20:06:25.899Z,55.50
2019-01-16T20:09:27.597Z,55.55
2019-01-16T20:12:27.677Z,56.11
2019-01-16T20:15:18.501Z,56.22
2019-01-16T20:18:12.358Z,56.04
2019-01-16T20:21:05.544Z,56.43
2019-01-16T20:27:23.842Z,56.83
2019-01-16T20:30:23.269Z,56.83
2019-01-16T20:33:35.351Z,56.84
2019-01-16T20:36:24.131Z,57.07
2019-01-16T20:39:19.124Z,57.87
2019-01-16T20:42:05.722Z,57.40
2019-01-16T20:44:55.650Z,57.78
2019-01-16T20:47:50.403Z,57.51
2019-01-16T20:50:43.250Z,57.16
2019-01-16T20:53:31.371Z,58.69
2019-01-16T20:56:32.255Z,58.69
2019-01-16T20:59:29.861Z,58.77
2019-01-16T21:02:20.830Z,58.43
2019-01-16T21:05:29.209Z,58.39
2019-01-16T21:08:40.542Z,58.48
2019-01-16T21:11:30.029Z,58.06
2019-01-16T21:14:27.917Z,57.44
2019-01-16T21:17:15.479Z,57.39
2019-01-16T21:20:08.078Z,57.48
2019-01-16T21:23:04.568Z,57.88
2019-01-16T21:26:16.071Z,57.86
2019-01-16T21:29:09.766Z,57.81
2019-01-16T21:31:56.744Z,57.79
2019-01-16T21:35:01.529Z,58.09
2019-01-16T21:37:50.989Z,58.64
2019-01-16T21:40:47.206Z,58.39
2019-01-16T21:43:39.182Z,58.29
2019-01-16T21:46:28.660Z,58.02
2019-01-16T21:49:25.618Z,57.97
2019-01-16T21:52:16.915Z,58.16
2019-01-16T21:55:12.022Z,57.62
2019-01-16T21:58:01.515Z,58.31
2019-01-16T22:01:09.083Z,58.43
2019-01-16T22:04:02.702Z,58.20
2019-01-16T22:07:02.194Z,57.82
2019-01-16T22:10:01.600Z,57.58
2019-01-16T22:12:56.994Z,57.36
2019-01-16T22:16:04.805Z,57.43
2019-01-16T22:19:12.970Z,57.43
2019-01-16T22:22:10.731Z,57.92
2019-01-16T22:25:10.326Z,58.03
2019-01-16T22:28:19.983Z,58.03
2019-01-16T22:31:28.691Z,57.64
2019-01-16T22:34:48.754Z,57.08
2019-01-16T22:37:48.324Z,57.08
2019-01-16T22:40:50.786Z,57.14
2019-01-16T22:43:51.445Z,56.76
2019-01-16T22:47:17.092Z,56.53
2019-01-16T22:50:25.793Z,56.62
2019-01-16T22:53:35.776Z,56.73
2019-01-16T22:56:47.610Z,57.32
2019-01-16T23:00:09.464Z,57.62
2019-01-16T23:02:52.968Z,57.76
2019-01-16T23:05:54.237Z,58.22
2019-01-16T23:08:46.287Z,57.78
2019-01-16T23:12:02.861Z,57.88
2019-01-16T23:14:54.355Z,57.58
2019-01-16T23:17:42.154Z,57.11
2019-01-16T23:20:35.286Z,57.17
2019-01-16T23:23:17.544Z,57.67
2019-01-16T23:26:11.662Z,58.03
2019-01-16T23:29:07.032Z,58.12
2019-01-16T23:35:11.221Z,59.37
2019-01-16T23:38:14.228Z,59.37
2019-01-16T23:41:11.317Z,60.41
2019-01-16T23:44:02.739Z,61.39
2019-01-16T23:47:15.109Z,61.89
2019-01-16T23:50:10.346Z,62.26
2019-01-16T23:52:58.866Z,63.30
2019-01-16T23:55:47.677Z,63.93
2019-01-16T23:58:31.344Z,64.15
